createdAt,value
2018-04-16T00:02:25.451Z,5.17
2018-04-16T00:04:51.690Z,6.43
2018-04-16T00:07:18.007Z,5.37
2018-04-16T00:09:44.247Z,5.33
2018-04-16T00:12:10.523Z,5.40
2018-04-16T00:14:36.803Z,5.33
2018-04-16T00:17:03.095Z,5.30
2018-04-16T00:19:29.371Z,4.70
2018-04-16T00:21:55.695Z,5.10
2018-04-16T00:24:21.962Z,5.10
2018-04-16T00:26:48.251Z,5.50
2018-04-16T00:29:14.575Z,4.87
2018-04-16T00:31:46.805Z,5.30
2018-04-16T00:34:18.962Z,5.30
2018-04-16T00:36:51.287Z,5.00
2018-04-16T00:39:23.535Z,6.00
2018-04-16T00:41:55.935Z,4.70
2018-04-16T00:44:28.371Z,5.07
2018-04-16T00:47:00.731Z,6.33
2018-04-16T00:49:32.952Z,5.80
2018-04-16T00:52:05.239Z,5.57
2018-04-16T00:54:37.483Z,5.87
2018-04-16T00:57:09.660Z,5.50
2018-04-16T00:59:41.844Z,5.97
2018-04-16T01:02:14.213Z,5.93
2018-04-16T01:04:46.575Z,6.20
2018-04-16T01:07:18.873Z,5.97
2018-04-16T01:09:51.067Z,5.43
2018-04-16T01:12:23.338Z,6.33
2018-04-16T01:14:55.722Z,11.03
2018-04-16T01:17:28.035Z,14.20
2018-04-16T01:20:00.232Z,7.13
2018-04-16T01:22:32.506Z,6.57
2018-04-16T01:25:04.738Z,6.60
2018-04-16T01:27:37.035Z,6.83
2018-04-16T01:30:09.291Z,6.80
2018-04-16T01:32:41.516Z,6.60
2018-04-16T01:35:13.707Z,7.10
2018-04-16T01:37:46.087Z,7.27
2018-04-16T01:40:18.360Z,8.03
2018-04-16T01:42:50.559Z,7.77
2018-04-16T01:45:23.023Z,8.97
2018-04-16T01:47:55.306Z,9.27
2018-04-16T01:50:27.487Z,11.17
2018-04-16T01:52:59.794Z,9.17
2018-04-16T01:55:32.063Z,9.43
2018-04-16T01:58:04.308Z,9.63
2018-04-16T02:00:36.531Z,9.93
2018-04-16T02:03:08.915Z,9.60
2018-04-16T02:05:41.147Z,9.80
2018-04-16T02:08:13.414Z,10.20
2018-04-16T02:10:45.652Z,10.30
2018-04-16T02:13:17.932Z,9.93
2018-04-16T02:15:50.188Z,11.00
2018-04-16T02:18:22.510Z,11.27
2018-04-16T02:20:54.739Z,10.13
2018-04-16T02:23:26.947Z,10.40
2018-04-16T02:25:59.147Z,10.10
2018-04-16T02:28:31.484Z,10.00
2018-04-16T02:31:03.815Z,10.07
2018-04-16T02:33:36.126Z,10.70
2018-04-16T02:36:08.509Z,9.77
2018-04-16T02:38:40.859Z,10.00
2018-04-16T02:41:13.233Z,9.70
2018-04-16T02:43:45.547Z,7.73
2018-04-16T02:46:17.735Z,7.47
2018-04-16T02:48:50.135Z,8.13
2018-04-16T02:51:22.405Z,7.77
2018-04-16T02:53:54.631Z,6.90
2018-04-16T02:59:25.723Z,5.67
2018-04-16T03:01:58.082Z,6.30
2018-04-16T03:17:54.095Z,7.00
2018-04-16T03:20:26.455Z,5.17
2018-04-16T03:22:58.903Z,6.07
2018-04-16T03:25:31.082Z,6.17
2018-04-16T03:28:03.480Z,5.53
2018-04-16T03:30:35.863Z,5.67
2018-04-16T03:33:08.382Z,7.13
2018-04-16T03:35:40.743Z,5.97
2018-04-16T03:38:12.992Z,5.93
2018-04-16T03:40:45.427Z,5.63
2018-04-16T03:43:17.650Z,6.03
2018-04-16T03:45:50.117Z,7.77
2018-04-16T03:48:22.448Z,5.50
2018-04-16T03:50:54.932Z,6.93
2018-04-16T03:53:21.219Z,7.73
2018-04-16T03:55:47.518Z,8.60
2018-04-16T03:58:13.743Z,8.37
2018-04-16T04:00:39.976Z,8.43
2018-04-16T04:03:06.239Z,8.93
2018-04-16T04:05:32.484Z,9.50
2018-04-16T04:07:58.771Z,10.57
2018-04-16T04:10:25.052Z,11.77
2018-04-16T04:12:51.343Z,11.87
2018-04-16T04:15:17.584Z,10.57
2018-04-16T04:17:43.843Z,10.57
2018-04-16T04:20:10.087Z,10.60
2018-04-16T04:22:48.703Z,10.73
2018-04-16T04:38:43.890Z,17.03
2018-04-16T04:41:10.119Z,19.93
2018-04-16T04:43:36.346Z,22.47
2018-04-16T04:46:02.617Z,23.57
2018-04-16T04:48:28.888Z,28.13
2018-04-16T04:50:55.127Z,28.40
2018-04-16T04:53:21.390Z,28.40
2018-04-16T04:55:47.610Z,28.17
2018-04-16T04:58:13.851Z,29.80
2018-04-16T05:00:40.134Z,28.50
2018-04-16T05:03:06.366Z,32.13
2018-04-16T05:05:32.590Z,32.00
2018-04-16T05:07:58.859Z,30.70
2018-04-16T05:10:25.087Z,31.07
2018-04-16T05:12:51.336Z,32.00
2018-04-16T05:15:17.615Z,32.17
2018-04-16T05:17:43.862Z,34.50
2018-04-16T05:20:10.091Z,34.40
2018-04-16T05:22:36.404Z,34.73
2018-04-16T05:25:02.659Z,34.97
2018-04-16T05:27:28.887Z,32.90
2018-04-16T05:29:55.163Z,33.97
2018-04-16T05:32:21.395Z,36.63
2018-04-16T05:34:47.660Z,35.43
2018-04-16T05:37:13.950Z,35.67
2018-04-16T05:39:40.183Z,34.97
2018-04-16T05:42:06.452Z,34.07
2018-04-16T05:44:32.721Z,34.93
2018-04-16T05:46:58.970Z,36.83
2018-04-16T05:49:25.244Z,35.67
2018-04-16T05:51:51.499Z,35.27
2018-04-16T05:54:17.766Z,35.13
2018-04-16T05:56:44.015Z,36.10
2018-04-16T05:59:10.279Z,35.57
2018-04-16T06:01:36.523Z,36.00
2018-04-16T06:04:02.779Z,35.10
2018-04-16T06:06:29.043Z,37.40
2018-04-16T06:08:55.315Z,37.67
2018-04-16T06:11:21.542Z,36.73
2018-04-16T06:13:47.811Z,36.77
2018-04-16T06:16:14.096Z,37.83
2018-04-16T06:18:40.343Z,36.43
2018-04-16T06:21:06.615Z,37.00
2018-04-16T06:23:32.847Z,34.10
2018-04-16T06:25:59.115Z,35.27
2018-04-16T06:28:25.395Z,32.70
2018-04-16T06:30:51.641Z,32.17
2018-04-16T06:33:17.935Z,31.77
2018-04-16T06:35:44.244Z,33.47
2018-04-16T06:38:10.495Z,32.27
2018-04-16T06:40:36.728Z,30.57
2018-04-16T06:43:02.999Z,31.43
2018-04-16T06:45:29.279Z,30.87
2018-04-16T06:47:55.506Z,30.57
2018-04-16T06:50:21.767Z,29.53
2018-04-16T06:52:48.012Z,29.07
2018-04-16T06:55:14.247Z,29.07
2018-04-16T06:57:40.539Z,27.83
2018-04-16T07:00:06.785Z,28.23
2018-04-16T07:02:33.032Z,27.50
2018-04-16T07:04:59.325Z,26.87
2018-04-16T07:07:25.600Z,25.30
2018-04-16T07:09:51.869Z,23.90
2018-04-16T07:12:18.168Z,24.53
2018-04-16T07:14:44.447Z,23.90
2018-04-16T07:17:10.749Z,23.70
2018-04-16T07:19:37.095Z,23.37
2018-04-16T07:22:03.355Z,24.60
2018-04-16T07:24:29.594Z,23.80
2018-04-16T07:26:55.878Z,23.13
2018-04-16T07:29:22.114Z,22.07
2018-04-16T07:31:48.370Z,21.67
2018-04-16T07:34:14.688Z,20.90
2018-04-16T07:36:40.934Z,21.20
2018-04-16T07:39:07.179Z,22.53
2018-04-16T07:41:33.448Z,22.83
2018-04-16T07:43:59.726Z,21.43
2018-04-16T07:46:25.964Z,21.23
2018-04-16T07:48:52.239Z,22.40
2018-04-16T07:51:18.472Z,21.20
2018-04-16T07:53:44.703Z,21.23
2018-04-16T07:56:10.971Z,18.97
2018-04-16T07:58:37.203Z,20.17
2018-04-16T08:01:03.448Z,20.07
2018-04-16T08:03:29.731Z,19.83
2018-04-16T08:05:55.963Z,18.90
2018-04-16T08:08:22.235Z,19.83
2018-04-16T08:10:48.503Z,19.00
2018-04-16T08:13:14.770Z,19.37
2018-04-16T08:15:41.016Z,18.80
2018-04-16T08:18:07.294Z,18.30
2018-04-16T08:20:33.530Z,17.73
2018-04-16T08:22:59.767Z,18.83
2018-04-16T08:25:26.038Z,18.23
2018-04-16T08:27:52.322Z,18.70
2018-04-16T08:30:18.582Z,18.50
2018-04-16T08:32:44.858Z,18.40
2018-04-16T08:35:11.083Z,19.80
2018-04-16T08:37:37.315Z,18.33
2018-04-16T08:40:03.599Z,18.33
2018-04-16T08:42:29.840Z,18.73
2018-04-16T08:44:56.099Z,18.70
2018-04-16T08:47:22.371Z,20.17
2018-04-16T08:49:48.603Z,18.87
2018-04-16T08:52:14.840Z,18.47
2018-04-16T08:54:41.190Z,18.87
2018-04-16T08:57:07.440Z,17.73
2018-04-16T08:59:33.693Z,19.03
2018-04-16T09:02:00.007Z,18.67
2018-04-16T09:04:26.279Z,18.30
2018-04-16T09:06:53.154Z,17.23
2018-04-16T09:09:19.495Z,17.37
2018-04-16T09:11:45.723Z,18.07
2018-04-16T09:14:11.960Z,17.73
2018-04-16T09:16:38.284Z,16.70
2018-04-16T09:19:04.514Z,17.10
2018-04-16T09:21:30.755Z,17.20
2018-04-16T09:23:57.019Z,17.17
2018-04-16T09:26:23.247Z,15.73
2018-04-16T09:28:49.531Z,16.83
2018-04-16T09:31:15.817Z,16.43
2018-04-16T09:33:42.056Z,17.53
2018-04-16T09:36:08.310Z,17.50
2018-04-16T09:38:34.584Z,18.93
2018-04-16T09:41:00.846Z,18.40
2018-04-16T09:43:27.087Z,17.43
2018-04-16T09:45:53.350Z,19.77
2018-04-16T09:48:19.575Z,17.93
2018-04-16T09:50:45.808Z,18.73
2018-04-16T09:53:12.095Z,17.53
2018-04-16T09:55:38.332Z,16.17
2018-04-16T09:58:04.571Z,17.00
2018-04-16T10:00:36.835Z,17.40
2018-04-16T10:03:03.130Z,16.67
2018-04-16T10:05:29.405Z,17.03
2018-04-16T10:07:55.688Z,16.40
2018-04-16T10:10:21.916Z,17.37
2018-04-16T10:12:48.142Z,17.20
2018-04-16T10:15:14.435Z,17.03
2018-04-16T10:17:40.671Z,18.63
2018-04-16T10:20:06.911Z,17.83
2018-04-16T10:22:33.184Z,17.70
2018-04-16T10:24:59.469Z,16.50
2018-04-16T10:27:25.711Z,17.50
2018-04-16T10:29:51.975Z,16.73
2018-04-16T10:32:18.214Z,17.47
2018-04-16T10:34:44.499Z,17.03
2018-04-16T10:37:10.768Z,17.93
2018-04-16T10:39:37.007Z,16.60
2018-04-16T10:42:03.246Z,17.50
2018-04-16T10:44:29.531Z,17.13
2018-04-16T10:46:55.777Z,17.23
2018-04-16T10:49:22.135Z,17.40
2018-04-16T10:51:48.399Z,16.93
2018-04-16T10:54:14.640Z,16.90
2018-04-16T10:56:40.922Z,17.30
2018-04-16T10:59:07.179Z,17.53
2018-04-16T11:01:33.406Z,16.33
2018-04-16T11:03:59.648Z,17.20
2018-04-16T11:06:25.918Z,15.57
2018-04-16T11:08:52.147Z,15.20
2018-04-16T11:11:18.416Z,15.87
2018-04-16T11:13:44.727Z,15.30
2018-04-16T11:16:10.960Z,16.50
2018-04-16T11:18:37.230Z,17.23
2018-04-16T11:21:03.570Z,17.20
2018-04-16T11:23:29.871Z,17.13
2018-04-16T11:25:56.127Z,17.00
2018-04-16T11:28:22.403Z,16.90
2018-04-16T11:30:48.677Z,16.60
2018-04-16T11:33:14.951Z,16.53
2018-04-16T11:35:41.241Z,15.07
2018-04-16T11:38:07.496Z,14.77
2018-04-16T11:40:33.731Z,14.33
2018-04-16T11:43:00.627Z,15.13
2018-04-16T11:45:26.863Z,14.70
2018-04-16T11:47:53.159Z,14.17
2018-04-16T11:50:19.434Z,15.10
2018-04-16T11:52:45.711Z,14.17
2018-04-16T11:55:11.971Z,14.00
2018-04-16T11:57:38.252Z,12.17
2018-04-16T12:00:04.512Z,12.27
2018-04-16T12:02:30.771Z,11.07
2018-04-16T12:04:57.043Z,11.97
2018-04-16T12:07:23.279Z,12.77
2018-04-16T12:09:49.511Z,11.67
2018-04-16T12:12:15.800Z,13.27
2018-04-16T12:14:42.039Z,12.90
2018-04-16T12:17:08.323Z,13.80
2018-04-16T12:19:34.595Z,12.90
2018-04-16T12:22:00.819Z,13.43
2018-04-16T12:24:27.050Z,16.03
2018-04-16T12:26:53.322Z,13.47
2018-04-16T12:29:19.576Z,16.97
2018-04-16T12:31:45.823Z,14.00
2018-04-16T12:34:12.085Z,12.93
2018-04-16T12:36:38.322Z,14.77
2018-04-16T12:39:05.507Z,19.50
2018-04-16T12:41:31.769Z,25.03
2018-04-16T12:43:58.027Z,16.00
2018-04-16T12:46:24.259Z,15.33
2018-04-16T12:48:50.536Z,16.23
2018-04-16T12:51:16.770Z,16.23
2018-04-16T12:53:42.996Z,16.57
2018-04-16T12:56:09.262Z,16.93
2018-04-16T12:58:35.502Z,19.03
2018-04-16T13:01:01.732Z,17.77
2018-04-16T13:03:28.013Z,17.93
2018-04-16T13:05:54.251Z,17.97
2018-04-16T13:08:20.546Z,18.47
2018-04-16T13:10:46.822Z,20.30
2018-04-16T13:13:13.059Z,19.50
2018-04-16T13:15:40.270Z,18.83
2018-04-16T13:18:06.555Z,17.63
2018-04-16T13:20:32.791Z,18.23
2018-04-16T13:22:59.023Z,17.73
2018-04-16T13:25:25.309Z,17.63
2018-04-16T13:27:52.243Z,17.23
2018-04-16T13:30:18.507Z,17.50
2018-04-16T13:32:44.777Z,18.13
2018-04-16T13:35:11.034Z,20.57
2018-04-16T13:37:37.269Z,19.13
2018-04-16T13:40:04.348Z,17.87
2018-04-16T13:42:30.586Z,17.33
2018-04-16T13:44:56.820Z,16.00
2018-04-16T13:47:23.095Z,16.80
2018-04-16T13:49:49.364Z,17.03
2018-04-16T13:52:15.602Z,16.37
2018-04-16T13:54:41.887Z,16.77
2018-04-16T13:57:08.171Z,16.97
2018-04-16T13:59:34.419Z,17.83
2018-04-16T14:02:00.708Z,16.83
2018-04-16T14:04:26.959Z,17.10
2018-04-16T14:06:53.259Z,16.97
2018-04-16T14:09:19.519Z,18.07
2018-04-16T14:11:45.759Z,18.50
2018-04-16T14:14:12.020Z,19.67
2018-04-16T14:16:38.339Z,19.43
2018-04-16T14:19:04.575Z,19.13
2018-04-16T14:21:30.816Z,17.37
2018-04-16T14:23:57.090Z,18.13
2018-04-16T14:26:23.427Z,18.57
2018-04-16T14:28:49.719Z,18.63
2018-04-16T14:31:16.008Z,34.33
2018-04-16T14:33:42.244Z,24.80
2018-04-16T14:36:08.476Z,18.77
2018-04-16T14:38:34.755Z,18.60
2018-04-16T14:41:01.014Z,17.67
2018-04-16T14:43:27.271Z,17.53
2018-04-16T14:45:53.542Z,17.40
2018-04-16T14:48:19.775Z,17.83
2018-04-16T14:50:46.014Z,16.33
2018-04-16T14:53:12.279Z,17.67
2018-04-16T14:55:38.573Z,16.90
2018-04-16T14:58:04.835Z,16.90
2018-04-16T15:00:31.111Z,16.40
2018-04-16T15:02:57.359Z,17.50
2018-04-16T15:05:23.599Z,16.93
2018-04-16T15:07:49.858Z,17.17
2018-04-16T15:10:16.090Z,17.60
2018-04-16T15:12:42.375Z,17.43
2018-04-16T15:15:08.644Z,15.77
2018-04-16T15:17:34.908Z,13.23
2018-04-16T15:20:01.149Z,13.10
2018-04-16T15:22:27.422Z,12.67
2018-04-16T15:24:53.687Z,12.57
2018-04-16T15:27:19.926Z,11.43
2018-04-16T15:29:46.212Z,14.80
2018-04-16T15:32:12.452Z,12.27
2018-04-16T15:34:38.680Z,12.23
2018-04-16T15:37:04.947Z,12.20
2018-04-16T15:39:31.183Z,14.33
2018-04-16T15:41:57.423Z,12.00
2018-04-16T15:44:23.702Z,10.80
2018-04-16T15:46:49.943Z,11.70
2018-04-16T15:49:16.188Z,10.87
2018-04-16T15:51:42.455Z,11.20
2018-04-16T15:54:08.682Z,12.73
2018-04-16T15:56:34.968Z,13.17
2018-04-16T15:59:01.245Z,13.17
2018-04-16T16:01:27.517Z,13.60
2018-04-16T16:03:53.747Z,13.33
2018-04-16T16:06:20.077Z,13.20
2018-04-16T16:08:46.336Z,12.53
2018-04-16T16:11:12.562Z,29.20
2018-04-16T16:13:38.823Z,30.17
2018-04-16T16:16:05.079Z,18.43
2018-04-16T16:18:31.328Z,12.93
2018-04-16T16:20:57.599Z,12.73
2018-04-16T16:23:23.858Z,14.10
2018-04-16T16:25:50.095Z,13.50
2018-04-16T16:28:16.389Z,13.50
2018-04-16T16:30:42.630Z,14.23
2018-04-16T16:33:08.859Z,13.70
2018-04-16T16:35:35.122Z,14.07
2018-04-16T16:38:01.401Z,13.50
2018-04-16T16:40:27.640Z,14.30
2018-04-16T16:42:53.934Z,13.87
2018-04-16T16:45:20.179Z,14.83
2018-04-16T16:47:46.453Z,15.40
2018-04-16T16:50:12.766Z,15.13
2018-04-16T16:52:38.998Z,16.13
2018-04-16T16:55:05.239Z,15.67
2018-04-16T16:57:31.503Z,17.80
2018-04-16T16:59:57.763Z,38.80
2018-04-16T17:02:24.011Z,21.17
2018-04-16T17:04:50.330Z,19.33
2018-04-16T17:07:16.568Z,19.17
2018-04-16T17:09:42.807Z,18.00
2018-04-16T17:12:09.079Z,16.10
2018-04-16T17:14:35.311Z,16.43
2018-04-16T17:17:01.577Z,16.70
2018-04-16T17:19:27.868Z,17.00
2018-04-16T17:21:54.114Z,16.97
2018-04-16T17:24:20.368Z,15.60
2018-04-16T17:26:46.639Z,15.53
2018-04-16T17:29:12.879Z,14.70
2018-04-16T17:31:39.149Z,14.63
2018-04-16T17:34:05.411Z,12.50
2018-04-16T17:36:31.646Z,12.87
2018-04-16T17:38:57.878Z,12.00
2018-04-16T17:41:24.155Z,13.57
2018-04-16T17:43:50.383Z,14.37
2018-04-16T17:46:16.635Z,10.07
2018-04-16T17:48:42.900Z,9.10
2018-04-16T17:51:15.960Z,7.67
2018-04-16T17:53:42.223Z,8.17
2018-04-16T17:56:08.491Z,7.47
2018-04-16T17:58:34.750Z,7.93
2018-04-16T18:01:01.048Z,7.33
2018-04-16T18:03:27.295Z,8.20
2018-04-16T18:05:53.529Z,8.23
2018-04-16T18:08:19.800Z,8.47
2018-04-16T18:10:46.046Z,8.90
2018-04-16T18:13:12.282Z,7.83
2018-04-16T18:15:38.547Z,8.17
2018-04-16T18:18:04.823Z,8.87
2018-04-16T18:20:31.060Z,8.10
2018-04-16T18:22:57.343Z,8.80
2018-04-16T18:25:23.599Z,8.73
2018-04-16T18:27:49.839Z,9.90
2018-04-16T18:30:16.119Z,11.93
2018-04-16T18:32:42.361Z,11.33
2018-04-16T18:35:08.600Z,11.87
2018-04-16T18:37:34.931Z,10.93
2018-04-16T18:40:01.187Z,11.00
2018-04-16T18:42:27.438Z,11.87
2018-04-16T18:44:53.728Z,11.77
2018-04-16T18:47:19.973Z,11.23
2018-04-16T18:49:46.211Z,11.77
2018-04-16T18:52:12.521Z,12.30
2018-04-16T18:54:38.766Z,11.80
2018-04-16T18:57:05.038Z,14.13
2018-04-16T18:59:31.327Z,12.80
2018-04-16T19:01:57.575Z,11.40
2018-04-16T19:04:23.823Z,10.97
2018-04-16T19:06:50.118Z,11.97
2018-04-16T19:09:16.388Z,11.23
2018-04-16T19:11:42.627Z,12.30
2018-04-16T19:14:08.896Z,12.60
2018-04-16T19:16:35.153Z,13.30
2018-04-16T19:19:01.413Z,13.10
2018-04-16T19:21:33.909Z,13.73
2018-04-16T19:24:00.184Z,13.00
2018-04-16T19:26:26.448Z,15.90
2018-04-16T19:28:52.708Z,15.20
2018-04-16T19:31:18.951Z,15.03
2018-04-16T19:33:51.345Z,15.90
2018-04-16T19:36:17.643Z,14.67
2018-04-16T19:38:43.887Z,16.40
2018-04-16T19:41:10.135Z,16.23
2018-04-16T19:43:36.415Z,16.67
2018-04-16T19:46:02.671Z,16.87
2018-04-16T19:51:27.416Z,17.73
2018-04-16T19:53:53.744Z,17.33
2018-04-16T19:56:26.083Z,17.80
2018-04-16T19:58:52.324Z,18.27
2018-04-16T20:01:18.596Z,17.20
2018-04-16T20:03:50.999Z,19.17
2018-04-16T20:06:17.282Z,20.90
2018-04-16T20:08:43.565Z,20.43
2018-04-16T20:11:09.804Z,20.67
2018-04-16T20:13:36.063Z,20.70
2018-04-16T20:16:02.365Z,30.90
2018-04-16T20:18:28.595Z,25.07
2018-04-16T20:20:54.830Z,25.70
2018-04-16T20:23:21.103Z,24.73
2018-04-16T20:25:47.338Z,24.37
2018-04-16T20:28:13.579Z,24.70
2018-04-16T20:30:39.858Z,25.50
2018-04-16T20:33:06.104Z,26.17
2018-04-16T20:35:32.379Z,26.73
2018-04-16T20:37:58.648Z,25.10
2018-04-16T20:40:24.887Z,25.03
2018-04-16T20:42:51.124Z,26.10
2018-04-16T20:45:17.403Z,29.90
2018-04-16T20:47:43.659Z,27.63
2018-04-16T20:50:09.907Z,30.33
2018-04-16T20:52:36.187Z,25.73
2018-04-16T20:55:02.482Z,27.70
2018-04-16T20:57:28.719Z,25.63
2018-04-16T20:59:55.045Z,26.40
2018-04-16T21:02:21.286Z,26.33
2018-04-16T21:04:47.531Z,25.63
2018-04-16T21:07:13.826Z,25.33
2018-04-16T21:09:40.081Z,24.80
2018-04-16T21:12:06.322Z,23.77
2018-04-16T21:14:32.670Z,25.50
2018-04-16T21:16:58.880Z,27.27
2018-04-16T21:19:25.124Z,23.27
2018-04-16T21:21:51.468Z,23.70
2018-04-16T21:24:17.714Z,28.47
2018-04-16T21:26:43.971Z,23.63
2018-04-16T21:29:10.243Z,24.33
2018-04-16T21:31:36.483Z,24.97
2018-04-16T21:34:02.738Z,26.10
2018-04-16T21:36:29.007Z,23.67
2018-04-16T21:38:55.279Z,24.67
2018-04-16T21:41:21.525Z,23.27
2018-04-16T21:43:47.790Z,22.97
2018-04-16T21:46:14.075Z,22.20
2018-04-16T21:48:40.335Z,22.80
2018-04-16T21:51:06.599Z,22.13
2018-04-16T21:53:32.863Z,21.10
2018-04-16T21:55:59.115Z,20.97
2018-04-16T21:58:25.393Z,20.40
2018-04-16T22:00:52.232Z,20.63
2018-04-16T22:03:18.491Z,20.60
2018-04-16T22:05:44.777Z,19.20
2018-04-16T22:08:11.039Z,21.00
2018-04-16T22:10:37.300Z,20.43
2018-04-16T22:13:03.600Z,20.73
2018-04-16T22:15:29.855Z,24.17
2018-04-16T22:17:56.091Z,19.37
2018-04-16T22:20:22.370Z,18.43
2018-04-16T22:22:48.700Z,19.03
2018-04-16T22:25:14.958Z,21.47
2018-04-16T22:27:41.227Z,18.63
2018-04-16T22:30:07.516Z,19.13
2018-04-16T22:32:33.746Z,21.33
2018-04-16T22:35:00.082Z,17.87
2018-04-16T22:37:26.331Z,20.13
2018-04-16T22:39:52.574Z,18.37
2018-04-16T22:42:18.859Z,20.63
2018-04-16T22:44:45.118Z,16.63
2018-04-16T22:47:11.367Z,15.50
2018-04-16T22:49:37.652Z,15.60
2018-04-16T22:52:03.923Z,16.43
2018-04-16T22:54:30.188Z,15.47
2018-04-16T22:56:56.463Z,19.03
2018-04-16T22:59:22.702Z,15.93
2018-04-16T23:01:48.952Z,14.40
2018-04-16T23:04:15.219Z,16.70
2018-04-16T23:06:41.478Z,15.27
2018-04-16T23:09:07.735Z,16.50
2018-04-16T23:11:34.009Z,14.27
2018-04-16T23:14:00.250Z,14.93
2018-04-16T23:16:26.495Z,15.10
2018-04-16T23:18:52.816Z,15.77
2018-04-16T23:21:19.061Z,15.70
2018-04-16T23:23:45.294Z,15.00
2018-04-16T23:26:11.557Z,15.10
2018-04-16T23:28:37.807Z,15.07
2018-04-16T23:31:04.055Z,14.00
2018-04-16T23:33:30.383Z,15.50
2018-04-16T23:35:56.627Z,15.20
2018-04-16T23:38:22.899Z,15.20
2018-04-16T23:40:49.167Z,15.90
2018-04-16T23:43:15.414Z,16.97
2018-04-16T23:45:41.649Z,15.23
2018-04-16T23:48:07.936Z,13.97
2018-04-16T23:50:34.227Z,15.87
2018-04-16T23:53:00.459Z,14.67
2018-04-16T23:55:26.722Z,14.93
2018-04-16T23:57:52.961Z,14.80
